Larkspur — C6BR6 — position and weather

sailwx.info

Track history (hours):
 
Tides and Currents Weather Stations Pressure Air Temp Water Temp Dewpoint Dewpoint Depression Visibility Wind Speed Wind Dir Waves Ship Positions

Larkspur

Operator: Transeuropa Lines

Last reported at 2016-Jun-13 19:04 UTC. Time now 2016-Jun-27 04:10 UTC.
Position S 34°19' E 017°58'.
Warning: this ship's position is 13 days out of date.

Length 225 m; draft 8.1 m.

Type: Tanker. MMSI: 311000344.

Date/timePositionNaut miles runAvg speedWind from/ knotsBaromVisibWave heightAir tempDewpointWater temp
2016-Jun-13 19:04S 34°19' E 017°58'  
2016-Jun-10 16:33S 32°11' E 031°58'2316.0
2016-Jun-10 15:07S 32°02' E 032°23'916.0
2016-Jun-10 14:33S 31°59' E 032°33'1616.0
2016-Jun-10 13:33S 31°53' E 032°51'1615.8
2016-Jun-10 12:33S 31°46' E 033°07'1615.6
2016-Jun-10 11:33S 31°42' E 033°25'1515.1
2016-Jun-10 10:33S 31°38' E 033°42'1514.7
2016-Jun-10 09:33S 31°36' E 033°59'1614.6
2016-Jun-10 08:29S 31°33' E 034°17'  
2016-Jun-06 13:30S 19°49' E 057°05'1515.4
2016-Jun-06 12:33S 19°43' E 057°19'1615.7
2016-Jun-06 11:34S 19°37' E 057°34'  
Track history (hours):
 
Tides and Currents Weather Stations Pressure Air Temp Water Temp Dewpoint Dewpoint Depression Visibility Wind Speed Wind Dir Waves Ship Positions

Larkspur

Operator: Transeuropa Lines

Last reported at 2016-Jun-13 19:04 UTC. Time now 2016-Jun-27 04:10 UTC.
Position S 34°19' E 017°58'.
Warning: this ship's position is 13 days out of date.

Length 225 m; draft 8.1 m.

Type: Tanker. MMSI: 311000344.

Date/timePositionNaut miles runAvg speedWind from/ knotsBaromVisibWave heightAir tempDewpointWater temp
2016-Jun-13 19:04S 34°19' E 017°58'  
2016-Jun-10 16:33S 32°11' E 031°58'2316.0
2016-Jun-10 15:07S 32°02' E 032°23'916.0
2016-Jun-10 14:33S 31°59' E 032°33'1616.0
2016-Jun-10 13:33S 31°53' E 032°51'1615.8
2016-Jun-10 12:33S 31°46' E 033°07'1615.6
2016-Jun-10 11:33S 31°42' E 033°25'1515.1
2016-Jun-10 10:33S 31°38' E 033°42'1514.7
2016-Jun-10 09:33S 31°36' E 033°59'1614.6
2016-Jun-10 08:29S 31°33' E 034°17'  
2016-Jun-06 13:30S 19°49' E 057°05'1515.4
2016-Jun-06 12:33S 19°43' E 057°19'1615.7
2016-Jun-06 11:34S 19°37' E 057°34'  

Dump ship's entire track history